Hayfield, Virginia
Current Conditions -  °F | °C
As of 1:15 PM on Thursday 27 Nov 2014 (Local Time) from KOKV Reporting Station
Overcast Overcast  
Wind Chill: 36°   Ceiling: 5500
Heat Index: 39°   Visibility: 10mi
Dew Point: 28°   Wind: 5mph
Humidity: 65%   Direction: 270°W
Pressure: 30.04"   Gusts: NA
Location:  39.2345°N, 78.29°W
Report Text: KOKV 271815Z AUTO 27004KT 10SM SCT047 OVC055 04/M02 A3004 RMK AO2 P0002
Loading
Personal Weather Stations






























Interactive Weather Map New forecast layout! Learn more

10-Day Weather Forecast

Advertisements
Track Severe Weather on mobile